Terminal Aerodrome Forecast
Issued by NWS Blacksburg, VA

Current Version | Previous Version | Text Only | Print | Product List | Glossary Off
Versions: 1 2 3 4 5 6 7 8 9 10 11 12 13 14 15 16 17

000
FTUS41 KRNK 141730
TAFBLF
TAF
KBLF 141730Z 1418/1518 20008G19KT P6SM SCT040 OVC110
     FM142000 20012G22KT P6SM -SHRA OVC035
     FM150000 17008KT 6SM -SHRA OVC030
     FM150600 19007KT 3SM SHRA BR SCT003 OVC015
     FM151400 29011G19KT 5SM -SHRA BR OVC004=

USA.gov is the U.S. government's official web portal to all federal, state and local government web resources and services.